Time;durP1;ratioP1;P1;durP2;ratioP2;P2;SDS_P1;SDS_P2;PMS_P1;PMS_P2;Temp;Humidity;BMP_temperature;BMP_pressure;BME280_temperature;BME280_humidity;BME280_pressure;Samples;Min_cycle;Max_cycle;Signal;HPM_P1;HPM_P2
2022/06/18 00:01:37;;;;;;;5.45;3.53;;;;;;;19.87;95.63;100539.00;5033496;28;20132;-62
2022/06/18 00:04:14;;;;;;;4.80;3.05;;;;;;;19.88;95.93;100534.47;5033686;28;20021;-62
2022/06/18 00:06:56;;;;;;;6.05;3.33;;;;;;;19.89;95.69;100547.00;5033511;28;20078;-62
2022/06/18 00:09:26;;;;;;;7.32;3.83;;;;;;;19.84;95.96;100538.31;5033413;28;20036;-62
2022/06/18 00:14:39;;;;;;;6.15;3.40;;;;;;;19.80;97.41;100542.19;5053280;28;20087;-62
2022/06/18 00:17:12;;;;;;;6.15;3.42;;;;;;;19.80;97.56;100547.59;5053458;28;20041;-62
2022/06/18 00:19:37;;;;;;;5.05;3.58;;;;;;;19.76;97.51;100544.19;5053010;28;20461;-62
2022/06/18 00:22:03;;;;;;;5.30;3.47;;;;;;;19.71;97.73;100545.44;5053193;28;20412;-62
2022/06/18 00:24:29;;;;;;;6.43;3.55;;;;;;;19.71;98.34;100546.31;5041674;28;20029;-62
2022/06/18 00:26:54;;;;;;;4.57;2.92;;;;;;;19.78;97.85;100554.91;5045931;28;20013;-62
2022/06/18 00:29:19;;;;;;;6.30;3.72;;;;;;;19.85;96.68;100549.00;5073057;28;20035;-62
2022/06/18 00:31:46;;;;;;;6.28;4.05;;;;;;;19.95;94.13;100555.59;5062227;28;20396;-63
2022/06/18 00:34:12;;;;;;;4.70;3.42;;;;;;;20.02;92.54;100551.53;5052744;28;20044;-62
2022/06/18 00:36:41;;;;;;;4.35;3.15;;;;;;;20.09;91.04;100550.19;5051185;28;20032;-62
2022/06/18 00:39:11;;;;;;;5.45;2.90;;;;;;;20.19;89.71;100548.69;5040476;28;20033;-62
2022/06/18 00:41:40;;;;;;;4.82;2.85;;;;;;;20.18;89.53;100546.94;5033092;28;20123;-62
2022/06/18 00:44:17;;;;;;;5.30;3.10;;;;;;;20.11;90.41;100550.09;5033246;28;20072;-62
2022/06/18 00:47:06;;;;;;;5.18;3.20;;;;;;;20.03;90.59;100558.66;5035792;28;20377;-62
2022/06/18 00:49:40;;;;;;;5.20;3.00;;;;;;;19.97;91.48;100547.38;5033000;28;20033;-62
2022/06/18 00:52:18;;;;;;;5.75;2.92;;;;;;;19.85;91.73;100543.63;5032744;28;20030;-62
2022/06/18 00:55:08;;;;;;;6.97;3.28;;;;;;;19.73;91.38;100541.69;5032821;28;20140;-62
2022/06/18 00:58:02;;;;;;;4.68;3.20;;;;;;;19.59;92.63;100547.06;5031843;28;20132;-63
2022/06/18 01:00:49;;;;;;;6.05;3.28;;;;;;;19.55;94.14;100550.91;5032724;28;20166;-63
2022/06/18 01:03:27;;;;;;;4.53;2.67;;;;;;;19.42;95.96;100550.78;5032597;28;20483;-63
2022/06/18 01:05:55;;;;;;;5.50;3.28;;;;;;;19.43;95.50;100546.25;5030694;28;20025;-63
2022/06/18 01:08:23;;;;;;;5.10;3.08;;;;;;;19.39;96.62;100542.00;5030550;28;20393;-63
2022/06/18 01:10:58;;;;;;;3.55;2.45;;;;;;;19.39;97.41;100539.28;5030400;28;20068;-63
2022/06/18 01:13:32;;;;;;;4.88;3.15;;;;;;;19.34;97.01;100538.72;5030553;28;20029;-63
2022/06/18 01:15:58;;;;;;;6.93;3.25;;;;;;;19.35;97.14;100532.38;5030746;28;20022;-63
2022/06/18 01:18:24;;;;;;;4.50;3.03;;;;;;;19.35;97.11;100526.97;5031430;28;20025;-63
2022/06/18 01:21:00;;;;;;;3.80;2.80;;;;;;;19.34;97.58;100536.03;5032319;28;20415;-65
2022/06/18 01:23:45;;;;;;;4.82;2.95;;;;;;;19.27;98.32;100529.22;5032463;28;20030;-64
2022/06/18 01:26:15;;;;;;;7.32;4.00;;;;;;;19.28;97.63;100512.06;5032604;28;20041;-64
2022/06/18 01:28:40;;;;;;;8.68;3.67;;;;;;;19.23;98.88;100522.25;5071815;28;20024;-63
2022/06/18 01:31:07;;;;;;;5.32;3.22;;;;;;;19.24;99.14;100513.22;5065884;28;20105;-62
2022/06/18 01:33:33;;;;;;;6.90;3.53;;;;;;;19.23;98.98;100516.88;5032118;28;20028;-62
2022/06/18 01:36:04;;;;;;;6.22;3.08;;;;;;;19.20;98.60;100506.28;5031785;28;20090;-62
2022/06/18 01:38:29;;;;;;;7.00;3.78;;;;;;;19.19;98.22;100509.94;5031420;28;20021;-63
2022/06/18 01:43:54;;;;;;;4.18;2.78;;;;;;;19.25;98.23;100512.25;5030358;28;20080;-64
2022/06/18 01:46:19;;;;;;;7.70;3.10;;;;;;;19.19;98.22;100507.25;5029872;28;20438;-63
2022/06/18 01:48:49;;;;;;;5.05;3.38;;;;;;;19.18;98.54;100503.66;5029812;28;20024;-63
2022/06/18 01:51:23;;;;;;;4.82;3.38;;;;;;;19.14;98.60;100495.88;5029622;28;20037;-63
2022/06/18 01:53:58;;;;;;;4.20;3.08;;;;;;;19.11;97.86;100502.28;5030052;28;20032;-63
2022/06/18 01:56:30;;;;;;;7.65;3.47;;;;;;;19.07;98.12;100497.19;5031739;28;20454;-63
2022/06/18 01:59:05;;;;;;;5.43;3.70;;;;;;;19.03;98.04;100503.69;5037580;28;20395;-63
2022/06/18 02:01:36;;;;;;;5.65;3.13;;;;;;;18.75;98.03;100466.72;5051152;28;20029;-63
2022/06/18 02:04:03;;;;;;;4.72;3.33;;;;;;;18.89;98.64;100484.78;5051071;28;20067;-63
2022/06/18 02:06:30;;;;;;;4.78;3.22;;;;;;;19.05;98.17;100499.09;5051305;28;20361;-63
2022/06/18 02:08:55;;;;;;;6.63;3.70;;;;;;;19.04;97.97;100487.47;5051030;28;20548;-64
2022/06/18 02:11:22;;;;;;;6.00;3.60;;;;;;;19.05;98.23;100491.00;5050424;28;20124;-64
2022/06/18 02:13:55;;;;;;;4.93;3.40;;;;;;;19.04;98.61;100491.97;5050009;28;20029;-64
2022/06/18 02:16:28;;;;;;;5.33;3.50;;;;;;;19.06;98.14;100490.91;5050118;28;20033;-64
2022/06/18 02:18:55;;;;;;;6.30;3.10;;;;;;;18.90;98.54;100490.09;5050019;28;20688;-64
2022/06/18 02:21:23;;;;;;;5.63;3.15;;;;;;;18.91;98.60;100499.06;5049486;28;20029;-64
2022/06/18 02:23:55;;;;;;;4.97;3.20;;;;;;;18.79;98.46;100495.25;5044206;28;20107;-64
2022/06/18 02:26:23;;;;;;;5.10;3.25;;;;;;;18.75;98.84;100492.81;5041001;28;20040;-64
2022/06/18 02:28:50;;;;;;;5.80;3.22;;;;;;;18.75;98.58;100496.38;5058694;28;20032;-64
2022/06/18 02:31:24;;;;;;;5.22;3.40;;;;;;;18.73;99.48;100492.91;5039449;28;20029;-64
2022/06/18 02:33:53;;;;;;;;;;;;;;;18.74;99.14;100483.00;5029951;28;20033;-64
2022/06/18 02:36:23;;;;;;;6.15;3.70;;;;;;;18.85;98.12;100478.72;5029484;28;19909;-64
2022/06/18 02:38:55;;;;;;;3.65;2.88;;;;;;;18.83;98.50;100482.47;5029778;28;20065;-64
2022/06/18 02:41:21;;;;;;;7.25;3.38;;;;;;;18.70;98.76;100474.22;5030854;28;20539;-64
2022/06/18 02:43:46;;;;;;;4.97;3.38;;;;;;;18.59;99.42;100476.66;5030810;28;20025;-64
2022/06/18 02:46:13;;;;;;;5.55;3.20;;;;;;;18.58;99.54;100479.47;5033362;28;20036;-65
2022/06/18 02:48:40;;;;;;;6.47;3.25;;;;;;;18.57;99.73;100477.69;5031063;28;20017;-64
2022/06/18 02:51:07;;;;;;;5.93;3.50;;;;;;;18.52;100.00;100486.06;5030885;28;20029;-64
2022/06/18 02:53:33;;;;;;;5.13;3.40;;;;;;;18.48;100.00;100481.81;5030918;28;20033;-64
2022/06/18 02:56:06;;;;;;;6.63;3.45;;;;;;;18.35;100.00;100473.53;5030767;28;20033;-64
2022/06/18 02:58:33;;;;;;;4.88;3.40;;;;;;;18.39;100.00;100479.63;5031185;28;20112;-64
2022/06/18 03:01:03;;;;;;;6.50;3.40;;;;;;;18.31;100.00;100471.97;5032833;28;20033;-64
2022/06/18 03:03:31;;;;;;;7.03;3.72;;;;;;;18.43;100.00;100483.91;5034805;28;20071;-65
2022/06/18 03:05:57;;;;;;;4.82;3.60;;;;;;;18.49;100.00;100488.06;5034854;28;20462;-64
2022/06/18 03:08:25;;;;;;;7.07;3.50;;;;;;;18.55;100.00;100485.03;5035067;28;20036;-64
2022/06/18 03:13:38;;;;;;;6.00;3.67;;;;;;;18.52;100.00;100493.28;5034742;28;20623;-64
2022/06/18 03:16:06;;;;;;;4.90;3.67;;;;;;;18.53;100.00;100492.31;5034597;28;20037;-64
2022/06/18 03:18:33;;;;;;;5.80;3.90;;;;;;;18.53;100.00;100484.25;5034458;28;20033;-65
2022/06/18 03:21:15;;;;;;;6.10;3.60;;;;;;;18.46;100.00;100490.94;5034407;28;20029;-64
2022/06/18 03:23:44;;;;;;;4.40;3.10;;;;;;;18.45;100.00;100489.22;5034694;28;20029;-64
2022/06/18 03:26:12;;;;;;;6.32;3.58;;;;;;;18.46;100.00;100485.53;5035057;28;20541;-64
2022/06/18 03:28:38;;;;;;;5.13;3.58;;;;;;;18.49;99.87;100490.75;5071809;28;20091;-64
2022/06/18 03:31:03;;;;;;;4.75;3.28;;;;;;;18.38;100.00;100485.97;5036250;28;20064;-64
2022/06/18 03:33:29;;;;;;;8.68;3.30;;;;;;;18.31;100.00;100481.88;5034107;28;20100;-64
2022/06/18 03:35:55;;;;;;;6.15;2.92;;;;;;;18.31;100.00;100482.75;5033491;28;20475;-64
2022/06/18 03:38:20;;;;;;;6.32;3.42;;;;;;;18.26;100.00;100484.84;5032329;28;20025;-64
2022/06/18 03:40:51;;;;;;;7.05;3.35;;;;;;;18.23;100.00;100484.13;5032395;28;20025;-64
2022/06/18 03:43:24;;;;;;;6.60;3.47;;;;;;;18.33;99.67;100498.81;5033163;28;20104;-64
2022/06/18 03:45:54;;;;;;;4.93;3.55;;;;;;;18.41;99.56;100498.41;5033299;28;20540;-64
2022/06/18 03:48:29;;;;;;;6.53;3.55;;;;;;;18.42;98.89;100501.00;5032939;28;20447;-64
2022/06/18 03:50:54;;;;;;;5.35;3.58;;;;;;;18.46;99.41;100504.41;5034144;28;20116;-64
2022/06/18 03:53:20;;;;;;;5.65;3.60;;;;;;;18.45;99.74;100505.38;5033805;28;20442;-64
2022/06/18 03:55:46;;;;;;;5.22;3.47;;;;;;;18.42;100.00;100500.16;5033815;28;20029;-64
2022/06/18 03:58:12;;;;;;;5.50;3.15;;;;;;;18.46;99.99;100504.41;5046971;28;20033;-64
2022/06/18 04:00:38;;;;;;;6.35;3.90;;;;;;;18.44;100.00;100498.22;5052230;28;20021;-64
2022/06/18 04:03:04;;;;;;;6.95;3.95;;;;;;;18.49;99.78;100501.53;5052092;28;20400;-64
2022/06/18 04:05:31;;;;;;;6.32;3.63;;;;;;;18.57;99.16;100504.66;5052209;28;20116;-64
2022/06/18 04:07:57;;;;;;;7.45;3.60;;;;;;;18.69;98.43;100504.81;5051690;28;20456;-64
2022/06/18 04:10:22;;;;;;;7.00;4.10;;;;;;;18.63;99.03;100507.00;5051922;28;20131;-64
2022/06/18 04:12:48;;;;;;;7.75;4.70;;;;;;;18.65;98.71;100507.81;5052244;28;20108;-64
2022/06/18 04:15:15;;;;;;;5.13;3.63;;;;;;;18.71;98.10;100502.03;5053542;28;20079;-64
2022/06/18 04:17:41;;;;;;;6.30;3.80;;;;;;;18.73;99.15;100505.53;5053133;28;20100;-64
2022/06/18 04:20:18;;;;;;;7.03;3.85;;;;;;;18.76;99.43;100505.34;5053200;28;20103;-64
2022/06/18 04:22:43;;;;;;;5.50;3.47;;;;;;;18.73;99.35;100500.97;5053688;28;20372;-64
2022/06/18 04:25:09;;;;;;;6.68;3.58;;;;;;;18.79;98.50;100497.06;5036148;28;20017;-64
2022/06/18 04:27:35;;;;;;;6.50;3.22;;;;;;;18.89;97.81;100506.34;5057017;28;20487;-64
2022/06/18 04:30:00;;;;;;;5.97;3.55;;;;;;;18.91;97.46;100499.91;5073341;28;20115;-64
2022/06/18 04:32:26;;;;;;;6.63;3.78;;;;;;;18.92;97.35;100493.56;5062533;28;20029;-64
2022/06/18 04:34:51;;;;;;;5.50;3.08;;;;;;;19.00;96.66;100502.06;5052968;28;20075;-64
2022/06/18 04:37:16;;;;;;;6.32;3.35;;;;;;;19.03;96.83;100498.31;5053106;28;20025;-64
2022/06/18 04:39:42;;;;;;;7.72;3.97;;;;;;;19.17;95.75;100511.84;5035753;28;20087;-64
2022/06/18 04:42:10;;;;;;;6.00;3.78;;;;;;;19.24;95.37;100503.28;5033093;28;20079;-64
2022/06/18 04:44:36;;;;;;;6.38;3.30;;;;;;;19.36;94.92;100504.41;5032710;28;20021;-64
2022/06/18 04:47:01;;;;;;;5.50;2.92;;;;;;;19.50;94.06;100499.06;5032878;28;20557;-64
2022/06/18 04:49:26;;;;;;;5.20;3.70;;;;;;;19.67;92.77;100506.13;5035505;28;20091;-63
2022/06/18 04:51:52;;;;;;;8.75;3.53;;;;;;;19.76;91.91;100494.72;5032951;28;20025;-63
2022/06/18 04:54:17;;;;;;;9.02;3.45;;;;;;;19.83;90.71;100499.66;5032537;28;20079;-63
2022/06/18 04:56:43;;;;;;;6.68;3.85;;;;;;;19.85;90.45;100500.41;5032758;28;20021;-63
2022/06/18 04:59:08;;;;;;;6.45;3.47;;;;;;;19.91;90.19;100505.44;5032421;28;20047;-63
2022/06/18 05:01:33;;;;;;;5.63;3.60;;;;;;;19.97;89.82;100512.28;5032836;28;20041;-63
2022/06/18 05:03:59;;;;;;;6.80;4.00;;;;;;;19.99;90.11;100494.16;5032565;28;20119;-63
2022/06/18 05:06:26;;;;;;;6.90;3.88;;;;;;;20.11;90.25;100506.88;5032729;28;20087;-63
2022/06/18 05:08:51;;;;;;;8.00;4.32;;;;;;;20.16;90.31;100497.56;5032628;28;20021;-63
2022/06/18 05:11:17;;;;;;;7.40;3.70;;;;;;;20.32;90.05;100505.53;5032315;28;20099;-64
2022/06/18 05:13:42;;;;;;;5.57;3.17;;;;;;;20.37;88.93;100498.88;5032077;28;20026;-64
2022/06/18 05:16:08;;;;;;;7.20;3.33;;;;;;;20.48;88.97;100512.53;5031971;28;20061;-64
2022/06/18 05:18:35;;;;;;;6.40;3.92;;;;;;;20.92;87.42;100510.47;5030335;28;20460;-64
2022/06/18 05:21:01;;;;;;;5.97;3.85;;;;;;;20.83;87.62;100504.81;5030465;28;20029;-64
2022/06/18 05:23:28;;;;;;;8.10;4.07;;;;;;;20.97;86.58;100502.09;5029754;28;20033;-64
2022/06/18 05:26:00;;;;;;;9.25;3.80;;;;;;;21.13;85.60;100499.19;5030388;28;20392;-64
2022/06/18 05:28:26;;;;;;;5.70;3.72;;;;;;;21.38;85.68;100493.84;5067969;28;20423;-64
2022/06/18 05:30:52;;;;;;;5.53;3.30;;;;;;;21.56;84.92;100500.69;5070143;28;20099;-64
2022/06/18 05:33:17;;;;;;;5.03;3.60;;;;;;;21.63;84.01;100472.22;5037679;28;20124;-64
2022/06/18 05:35:44;;;;;;;10.05;4.10;;;;;;;21.92;83.44;100496.28;5031860;28;20025;-64
2022/06/18 05:38:19;;;;;;;6.85;4.07;;;;;;;22.08;82.88;100496.03;5031907;28;20052;-64
2022/06/18 05:40:45;;;;;;;5.93;3.97;;;;;;;22.17;81.41;100479.13;5031702;28;20095;-64
2022/06/18 05:43:10;;;;;;;8.02;4.78;;;;;;;22.34;80.12;100488.72;5031909;28;20037;-64
2022/06/18 05:45:37;;;;;;;6.00;3.75;;;;;;;22.47;79.72;100490.41;5031905;28;20079;-64
2022/06/18 05:48:03;;;;;;;7.85;4.68;;;;;;;22.66;79.94;100492.66;5033045;28;20014;-64
2022/06/18 05:50:29;;;;;;;7.53;3.80;;;;;;;22.79;78.31;100486.19;5032738;28;20033;-63
2022/06/18 05:52:54;;;;;;;7.22;3.47;;;;;;;22.90;77.52;100488.97;5031690;28;20021;-63
2022/06/18 05:55:21;;;;;;;5.68;3.28;;;;;;;23.05;77.35;100490.50;5031263;28;20029;-63
2022/06/18 05:57:55;;;;;;;5.22;3.10;;;;;;;23.15;76.24;100487.97;5031685;28;20498;-63
2022/06/18 06:00:24;;;;;;;6.28;3.65;;;;;;;23.31;75.88;100481.25;5031594;28;20091;-63
2022/06/18 06:02:49;;;;;;;11.02;3.40;;;;;;;23.43;75.05;100480.31;5031383;28;20073;-64
2022/06/18 06:05:15;;;;;;;6.75;3.55;;;;;;;23.58;73.75;100482.81;5031473;28;20028;-63
2022/06/18 06:07:42;;;;;;;7.90;4.10;;;;;;;23.67;72.82;100477.53;5031316;28;20040;-62
2022/06/18 06:13:09;;;;;;;5.32;3.53;;;;;;;24.06;71.22;100468.06;5031459;28;20040;-62
2022/06/18 06:15:35;;;;;;;6.85;3.78;;;;;;;24.23;67.88;100473.00;5050455;28;20032;-62
2022/06/18 06:18:00;;;;;;;4.82;2.78;;;;;;;24.41;65.86;100464.22;5051282;28;20039;-63
2022/06/18 06:20:30;;;;;;;6.70;3.00;;;;;;;24.63;64.61;100458.69;5051001;28;20032;-63
2022/06/18 06:22:56;;;;;;;4.75;3.03;;;;;;;24.79;62.83;100447.44;5047854;28;20028;-63
2022/06/18 06:25:22;;;;;;;6.65;2.92;;;;;;;24.93;63.92;100454.41;5031943;28;20018;-63
2022/06/18 06:27:47;;;;;;;5.53;3.20;;;;;;;25.03;59.27;100450.78;5058502;28;20487;-63
2022/06/18 06:30:13;;;;;;;4.85;3.20;;;;;;;25.16;60.63;100462.38;5071424;28;20062;-63
2022/06/18 06:32:39;;;;;;;5.55;3.72;;;;;;;25.18;60.78;100464.94;5070896;28;20048;-63
2022/06/18 06:35:05;;;;;;;6.78;4.32;;;;;;;25.10;58.92;100454.72;5070235;28;20033;-63
2022/06/18 06:37:31;;;;;;;6.45;5.63;;;;;;;25.35;60.82;100461.69;5070948;28;20032;-63
2022/06/18 06:39:57;;;;;;;8.90;5.60;;;;;;;25.41;60.33;100462.00;5051399;28;20032;-63
2022/06/18 06:42:22;;;;;;;8.02;5.43;;;;;;;25.62;61.17;100454.69;5048732;28;20041;-63
2022/06/18 06:44:47;;;;;;;7.28;4.93;;;;;;;25.82;59.76;100459.25;5031020;28;20025;-63
2022/06/18 06:47:13;;;;;;;8.85;5.07;;;;;;;25.98;58.03;100456.88;5030919;28;20116;-63
2022/06/18 06:49:38;;;;;;;5.20;3.83;;;;;;;26.15;58.89;100457.25;5030955;28;20033;-63
2022/06/18 06:52:04;;;;;;;6.18;3.80;;;;;;;26.25;59.83;100447.25;5030859;28;20029;-63
2022/06/18 06:54:30;;;;;;;5.20;3.65;;;;;;;26.40;57.87;100446.75;5030951;28;20021;-63
2022/06/18 06:59:39;;;;;;;5.38;3.22;;;;;;;26.55;57.84;100449.94;5041916;28;20670;-63
2022/06/18 07:02:13;;;;;;;4.63;2.55;;;;;;;26.72;56.42;100441.09;5050875;28;20103;-63
2022/06/18 07:04:39;;;;;;;4.80;2.55;;;;;;;26.89;55.87;100448.56;5050595;28;20484;-63
2022/06/18 07:07:04;;;;;;;4.28;2.47;;;;;;;27.06;54.43;100446.00;5050589;28;20040;-63
2022/06/18 07:09:30;;;;;;;3.20;2.30;;;;;;;27.11;52.42;100442.81;5050238;28;20384;-64
2022/06/18 07:11:55;;;;;;;5.10;2.53;;;;;;;27.20;51.44;100439.22;5050592;28;20056;-64
2022/06/18 07:14:20;;;;;;;4.80;2.25;;;;;;;27.16;49.55;100441.41;5050120;28;20155;-65
2022/06/18 07:16:48;;;;;;;2.50;2.00;;;;;;;27.39;50.95;100441.97;5050775;28;20029;-64
2022/06/18 07:19:13;;;;;;;4.10;2.30;;;;;;;27.48;49.59;100449.28;5049315;28;20037;-64
2022/06/18 07:21:39;;;;;;;6.60;3.65;;;;;;;27.72;48.34;100433.25;5048657;28;20025;-63
2022/06/18 07:24:04;;;;;;;3.25;2.58;;;;;;;28.06;48.23;100442.66;5040063;28;20033;-62
2022/06/18 07:26:30;;;;;;;4.82;2.63;;;;;;;28.27;46.36;100442.44;5034676;28;20461;-62
2022/06/18 07:28:55;;;;;;;3.75;2.40;;;;;;;28.47;46.04;100445.91;5068707;28;20031;-62
2022/06/18 07:31:32;;;;;;;3.50;2.13;;;;;;;28.61;45.77;100432.59;5068299;28;20040;-62
2022/06/18 07:33:58;;;;;;;4.50;2.35;;;;;;;28.75;44.97;100442.16;5067873;28;20029;-64
2022/06/18 07:36:26;;;;;;;4.50;2.15;;;;;;;28.88;45.16;100440.72;5068472;28;20370;-64
2022/06/18 07:38:51;;;;;;;4.20;2.03;;;;;;;29.16;44.57;100449.78;5045832;28;20025;-64
2022/06/18 07:41:19;;;;;;;3.40;2.40;;;;;;;29.44;45.69;100438.53;5050227;28;20048;-64
2022/06/18 07:43:49;;;;;;;5.53;2.25;;;;;;;29.71;44.85;100439.44;5050366;28;20158;-64
2022/06/18 07:46:15;;;;;;;3.72;1.90;;;;;;;29.97;44.81;100437.56;5051160;28;20025;-63
2022/06/18 07:48:41;;;;;;;2.75;1.98;;;;;;;30.30;45.39;100442.19;5053888;28;20029;-64
2022/06/18 07:51:07;;;;;;;3.58;2.05;;;;;;;30.58;44.05;100433.53;5053360;28;20036;-64
2022/06/18 07:53:34;;;;;;;5.20;1.90;;;;;;;30.94;45.24;100425.06;5049943;28;20067;-64
2022/06/18 07:56:00;;;;;;;3.78;2.03;;;;;;;31.15;44.28;100426.31;5034557;28;20061;-64
2022/06/18 07:58:28;;;;;;;2.88;2.10;;;;;;;31.24;42.75;100427.13;5035084;28;20099;-64
2022/06/18 08:00:55;;;;;;;4.25;2.42;;;;;;;31.51;42.16;100430.44;5032321;28;20362;-64
2022/06/18 08:03:21;;;;;;;4.32;2.20;;;;;;;31.77;41.63;100431.09;5032697;28;20567;-65
2022/06/18 08:05:47;;;;;;;4.38;1.88;;;;;;;31.72;42.72;100438.13;5032003;28;20096;-64
2022/06/18 08:08:14;;;;;;;2.58;1.90;;;;;;;31.98;43.19;100438.78;5031973;28;20060;-63
2022/06/18 08:10:41;;;;;;;3.47;2.10;;;;;;;32.12;42.82;100435.31;5043690;28;20083;-63
2022/06/18 08:13:06;;;;;;;5.35;2.10;;;;;;;32.05;40.94;100435.16;5051783;28;20473;-64
2022/06/18 08:15:32;;;;;;;5.57;1.95;;;;;;;32.30;41.28;100426.81;5051251;28;20024;-64
2022/06/18 08:17:58;;;;;;;3.28;2.05;;;;;;;32.66;40.55;100428.03;5051206;28;20029;-65
2022/06/18 08:20:25;;;;;;;3.22;2.10;;;;;;;32.46;40.14;100416.59;5050073;28;20111;-64
2022/06/18 08:22:55;;;;;;;3.30;2.13;;;;;;;32.55;40.40;100418.28;5050419;28;20293;-64
2022/06/18 08:25:23;;;;;;;3.90;2.10;;;;;;;32.84;39.99;100414.81;5045989;28;20082;-64
2022/06/18 08:27:50;;;;;;;5.63;2.17;;;;;;;32.91;39.88;100416.72;5062135;28;20590;-64
2022/06/18 08:30:16;;;;;;;3.83;2.28;;;;;;;33.08;39.51;100412.75;5068519;28;20028;-64
2022/06/18 08:32:42;;;;;;;3.80;2.20;;;;;;;33.19;39.49;100415.13;5068831;28;20133;-64
2022/06/18 08:35:08;;;;;;;3.03;2.03;;;;;;;33.47;39.75;100400.75;5061372;28;20064;-64
2022/06/18 08:37:34;;;;;;;4.03;2.38;;;;;;;33.54;38.67;100402.59;5029621;28;20026;-64
2022/06/18 08:40:00;;;;;;;4.45;2.20;;;;;;;33.74;38.43;100391.84;5029777;28;20029;-64
2022/06/18 08:42:38;;;;;;;3.60;2.08;;;;;;;34.01;37.44;100393.97;5047622;28;20025;-64
2022/06/18 08:45:22;;;;;;;4.18;2.00;;;;;;;34.04;37.85;100385.28;5051232;28;20104;-64
2022/06/18 08:47:50;;;;;;;3.15;1.88;;;;;;;34.06;36.92;100388.72;5051040;28;20040;-65
2022/06/18 08:50:30;;;;;;;2.35;1.70;;;;;;;33.98;38.12;100388.84;5046143;28;20289;-65
2022/06/18 08:53:02;;;;;;;7.38;2.40;;;;;;;34.22;38.14;100374.69;5030757;28;20063;-65
2022/06/18 08:55:55;;;;;;;3.92;2.10;;;;;;;34.31;36.92;100377.19;5029531;28;20033;-65
2022/06/18 08:58:28;;;;;;;3.53;2.00;;;;;;;34.43;36.47;100375.66;5027541;28;20041;-65
2022/06/18 09:01:00;;;;;;;3.08;2.10;;;;;;;34.89;36.60;100369.78;5030545;28;20021;-65
2022/06/18 09:03:31;;;;;;;3.20;2.00;;;;;;;35.07;37.21;100379.38;5041045;28;20082;-65
2022/06/18 09:06:18;;;;;;;3.70;2.10;;;;;;;35.16;36.35;100372.63;5050473;28;20032;-65
2022/06/18 09:09:12;;;;;;;3.00;1.95;;;;;;;35.18;36.34;100377.97;5047480;28;20032;-65
2022/06/18 09:11:55;;;;;;;4.90;2.28;;;;;;;35.28;36.60;100379.34;5036779;28;20517;-65
2022/06/18 09:14:43;;;;;;;;;;;;;;;35.66;35.55;100366.03;5031549;28;20388;-65
2022/06/18 09:17:23;;;;;;;3.70;2.38;;;;;;;35.36;36.39;100364.50;5029520;28;20000;-65
2022/06/18 09:20:06;;;;;;;7.72;2.38;;;;;;;35.32;35.93;100365.97;5048476;28;20048;-65
2022/06/18 09:22:36;;;;;;;3.67;1.98;;;;;;;35.42;34.61;100363.75;5048728;28;20044;-65
2022/06/18 09:25:09;;;;;;;2.75;2.00;;;;;;;35.30;33.66;100366.19;5032494;28;20057;-65
2022/06/18 09:27:43;;;;;;;3.97;2.05;;;;;;;35.13;34.60;100364.75;5051103;28;20024;-65
2022/06/18 09:30:16;;;;;;;2.88;2.05;;;;;;;35.47;35.42;100361.25;5066519;28;20090;-65
2022/06/18 09:33:04;;;;;;;4.05;1.98;;;;;;;35.77;34.91;100363.56;5060562;28;20012;-65
2022/06/18 09:35:40;;;;;;;2.75;1.73;;;;;;;35.96;34.33;100361.16;5035384;28;20638;-65
2022/06/18 09:38:18;;;;;;;2.88;2.00;;;;;;;35.65;34.81;100362.41;5028394;28;20408;-65
2022/06/18 09:40:57;;;;;;;6.00;2.30;;;;;;;35.48;33.58;100349.09;5028322;28;20111;-65
2022/06/18 09:43:33;;;;;;;4.00;2.10;;;;;;;35.74;34.08;100352.03;5030342;28;20028;-66
2022/06/18 09:46:04;;;;;;;4.43;1.98;;;;;;;35.90;33.81;100345.38;5030163;28;20418;-66
2022/06/18 09:48:30;;;;;;;7.00;1.80;;;;;;;36.19;33.74;100340.38;5028521;28;20033;-66
2022/06/18 09:51:02;;;;;;;4.65;1.77;;;;;;;36.42;34.64;100343.72;5048169;28;20031;-66
2022/06/18 09:53:37;;;;;;;4.55;2.00;;;;;;;36.42;32.69;100335.41;5043945;28;20059;-66
2022/06/18 09:56:08;;;;;;;2.13;1.70;;;;;;;36.31;32.57;100337.88;5028751;28;20044;-66
2022/06/18 09:58:42;;;;;;;4.25;1.88;;;;;;;36.27;32.03;100336.56;5031375;28;20029;-65
2022/06/18 10:01:13;;;;;;;3.20;1.85;;;;;;;36.08;31.08;100335.41;5035542;28;20040;-65
2022/06/18 10:09:22;;;;;;;4.10;1.70;;;;;;;36.27;30.75;100318.03;5038135;28;20526;-67
2022/06/18 10:11:47;;;;;;;3.67;1.60;;;;;;;36.04;30.87;100314.75;5049066;28;20421;-64
2022/06/18 10:14:19;;;;;;;2.60;1.73;;;;;;;36.28;31.82;100310.59;5047745;28;20028;-64
2022/06/18 10:17:07;;;;;;;3.95;1.50;;;;;;;36.38;32.25;100314.69;5047689;28;20028;-65
2022/06/18 10:20:08;;;;;;;2.90;1.60;;;;;;;36.96;30.60;100304.78;5026545;28;20112;-65
2022/06/18 10:22:48;;;;;;;2.65;1.55;;;;;;;37.42;29.70;100304.78;5031555;28;20491;-64
2022/06/18 10:25:42;;;;;;;2.08;1.42;;;;;;;37.44;29.78;100306.31;5029743;28;20021;-65
2022/06/18 10:28:13;;;;;;;3.58;1.65;;;;;;;37.07;30.55;100300.53;5062397;28;20028;-64
2022/06/18 10:31:03;;;;;;;4.10;1.60;;;;;;;37.30;30.13;100287.94;5069403;28;20029;-65
2022/06/18 10:33:32;;;;;;;2.25;1.50;;;;;;;37.24;30.93;100288.81;5044564;28;20436;-65
2022/06/18 10:36:41;;;;;;;2.22;1.45;;;;;;;37.06;30.32;100283.03;5029754;28;20025;-66
2022/06/18 10:39:38;;;;;;;2.90;1.60;;;;;;;37.72;29.16;100272.72;5046749;28;20068;-65
2022/06/18 10:42:21;;;;;;;2.13;1.40;;;;;;;37.81;30.23;100265.88;5029157;28;20389;-65
2022/06/18 10:45:08;;;;;;;2.53;1.25;;;;;;;37.58;27.75;100266.31;5031124;28;20029;-65
2022/06/18 10:47:38;;;;;;;1.58;1.10;;;;;;;38.22;26.88;100258.84;5038734;28;20489;-65
2022/06/18 10:50:13;;;;;;;2.58;1.23;;;;;;;38.47;28.56;100263.63;5032683;28;20493;-65
2022/06/18 10:52:39;;;;;;;2.45;1.38;;;;;;;38.55;28.20;100257.81;5027835;28;20520;-65
2022/06/18 10:55:16;;;;;;;3.58;1.23;;;;;;;38.71;28.26;100257.28;5027666;28;20037;-64
2022/06/18 10:57:41;;;;;;;3.58;1.33;;;;;;;38.76;27.24;100257.47;5028403;28;20033;-65
2022/06/18 11:00:18;;;;;;;2.92;1.30;;;;;;;38.71;27.60;100262.84;5028469;28;20040;-65
2022/06/18 11:02:46;;;;;;;3.65;1.67;;;;;;;38.45;26.59;100251.88;5034475;28;20102;-65
2022/06/18 11:05:31;;;;;;;1.35;1.02;;;;;;;38.51;27.35;100256.53;5029574;28;20390;-65
2022/06/18 11:08:00;;;;;;;2.97;1.30;;;;;;;38.93;26.11;100250.25;5028720;28;20033;-65
2022/06/18 11:10:49;;;;;;;2.85;1.10;;;;;;;38.73;25.87;100246.78;4914065;28;20081;-63
2022/06/18 11:13:22;;;;;;;1.85;0.90;;;;;;;38.92;26.30;100238.28;5029132;28;20091;-64
2022/06/18 11:15:48;;;;;;;1.88;1.05;;;;;;;38.75;25.37;100237.13;5029097;28;20087;-64
2022/06/18 11:18:18;;;;;;;1.90;1.10;;;;;;;38.52;25.93;100231.28;5043064;28;20025;-64
2022/06/18 11:21:17;;;;;;;3.80;1.40;;;;;;;38.49;26.52;100237.28;5028691;28;20401;-64
2022/06/18 11:23:50;;;;;;;1.92;1.20;;;;;;;39.00;26.74;100229.63;5037444;28;20033;-64
2022/06/18 11:26:22;;;;;;;2.20;1.20;;;;;;;39.43;27.93;100229.66;5033705;28;20408;-64
2022/06/18 11:28:51;;;;;;;2.45;2.05;;;;;;;39.94;27.11;100218.16;5041512;28;20502;-64
2022/06/18 11:31:24;;;;;;;3.45;1.20;;;;;;;39.58;26.93;100216.22;5050709;28;20032;-64
2022/06/18 11:33:59;;;;;;;1.42;0.98;;;;;;;39.66;27.49;100212.25;5041764;28;20381;-64
2022/06/18 11:36:37;;;;;;;2.15;1.33;;;;;;;39.33;24.61;100212.63;5034906;28;20283;-64
2022/06/18 11:39:03;;;;;;;1.83;1.08;;;;;;;39.30;26.04;100204.75;5049602;28;20446;-64
2022/06/18 11:41:45;;;;;;;2.00;0.90;;;;;;;39.59;26.64;100195.63;5053155;28;20035;-64
2022/06/18 11:44:16;;;;;;;1.65;1.00;;;;;;;39.92;26.82;100196.09;5040163;28;20115;-64
2022/06/18 11:46:50;;;;;;;3.78;1.20;;;;;;;40.56;25.41;100192.59;5034109;28;20029;-64
2022/06/18 11:49:25;;;;;;;1.75;1.10;;;;;;;40.90;25.08;100189.03;5045240;28;20033;-64
2022/06/18 11:52:18;;;;;;;0.95;0.68;;;;;;;40.39;22.36;100174.84;5050403;28;20028;-64
2022/06/18 11:55:00;;;;;;;2.17;1.08;;;;;;;40.05;23.36;100176.38;5039971;28;20040;-64
2022/06/18 11:58:03;;;;;;;1.87;1.03;;;;;;;40.54;24.17;100164.94;5035411;28;20029;-66
2022/06/18 12:00:56;;;;;;;4.32;1.17;;;;;;;41.06;25.10;100167.88;5043863;28;20384;-64